Aeroporto :
LOGIN :

Iscrizione | Disclaimer

   EN    FR    IT 

 










Sommario :    VFR   VFR Marginale   IFR   IFR Intensivo   IFR Molto Intensivo
Visibilità : 
Base nubi : 
>= 8 km
>= 3000ft
5 / 8 km
1000 / 3000 ft
1500m / 5 km
500 / 1000 ft
800 / 1500m
200 / 500 ft
< 800m
< 200 ft
Simboli :   Temporali  Nebbia  Neve Forte  Precipitazioni Forti  Vento > 20 kt
SIGMETs :   Varie  Temporali  Ghiacco  Turbolenza  Onda orograficha  Ceneri Vulcaniche






- Altitudine del aeroporto : 16 ft
- Codice IATA : SDR


LEXJ - Santander Cantabria

ULTIMO METAR :
  • 171600Z 30010KT 270V340 9999 SCT047 BKN060 12/09 Q1031

METARs OBSOLETI :
  • 171530Z 30016KT 9999 SCT050 BKN068 12/08 Q1031
  • 171500Z 30011KT 280V340 9999 FEW027 SCT048 13/08 Q1031
  • 171430Z 30013G23KT 280V350 9999 FEW027 BKN052 13/08 Q1031
  • 171400Z 30013KT 270V340 9999 BKN046 13/08 Q1030
  • 171330Z 30013KT 280V360 9999 FEW052 13/09 Q1030

TAF TAF LEXJ
Valido dal 17 a 15 ore il 18 a 15 ore UTC


171400Z 1715/1815 29009KT 9999 SCT050 TX13/1814Z TN07/1803Z
TEMPO 1715/1718 30015G25KT
PROB40
TEMPO 1715/1718 SHRA SCT030TCU
PROB40
TEMPO 1718/1724 SCT030TCU



MetMap, La meteo Aeronautica in un colpo d'occhio ! - Copyright ORBIFLY Dicembre 2007 - Disclaimer

ORBIFLY MET'MAP TEAM :

Programmazione e sviluppo : Alexandra Zaïnal
Concezione : Baudouin d'Aumeries
Aiuto per la programmazione : Marc-Olivier Méhu
Supporto tecnico e logistico : Manuel Goepfert
Aiuto per la traduzione : Arnaldo La Scala

Contatto : metmap@orbifly.com




FONTI E CREDITI :

   NOAA